createdAt,value
2022-11-19T00:01:26.621Z,97668.13
2022-11-19T00:03:54.053Z,97664.91
2022-11-19T00:06:24.816Z,97670.47
2022-11-19T00:08:52.051Z,97679.91
2022-11-19T00:11:45.599Z,97672.13
2022-11-19T00:14:14.468Z,97676.06
2022-11-19T00:16:42.447Z,97653.28
2022-11-19T00:19:10.986Z,97673.97
2022-11-19T00:21:37.962Z,97683.59
2022-11-19T00:24:05.214Z,97674.81
2022-11-19T00:26:32.139Z,97675.53
2022-11-19T00:28:59.141Z,97683.59
2022-11-19T00:31:26.024Z,97680.66
2022-11-19T00:33:54.835Z,97678.25
2022-11-19T00:36:22.964Z,97694.00
2022-11-19T00:38:50.067Z,97688.69
2022-11-19T00:41:17.080Z,97691.66
2022-11-19T00:43:50.662Z,97704.44
2022-11-19T00:46:22.676Z,97708.91
2022-11-19T00:48:51.463Z,97705.44
2022-11-19T00:51:19.993Z,97695.97
2022-11-19T00:53:47.380Z,97703.22
2022-11-19T00:56:18.175Z,97695.25
2022-11-19T00:58:45.949Z,97695.56
2022-11-19T01:01:15.347Z,97698.22
2022-11-19T01:03:43.067Z,97702.31
2022-11-19T01:06:18.888Z,97707.66
2022-11-19T01:08:47.467Z,97712.94
2022-11-19T01:11:26.257Z,97709.47
2022-11-19T01:13:53.658Z,97701.78
2022-11-19T01:16:23.668Z,97695.38
2022-11-19T01:18:51.444Z,97708.31
2022-11-19T01:21:20.802Z,97708.63
2022-11-19T01:23:48.821Z,97715.00
2022-11-19T01:26:16.294Z,97710.84
2022-11-19T01:28:43.971Z,97725.34
2022-11-19T01:31:17.372Z,97724.63
2022-11-19T01:33:45.468Z,97718.06
2022-11-19T01:36:14.831Z,97721.13
2022-11-19T01:38:42.108Z,97698.06
2022-11-19T01:41:09.707Z,97734.13
2022-11-19T01:43:48.969Z,97729.25
2022-11-19T01:46:21.866Z,97732.44
2022-11-19T01:48:57.819Z,97734.66
2022-11-19T01:51:52.032Z,97737.88
2022-11-19T01:54:34.255Z,97741.06
2022-11-19T01:57:04.765Z,97731.34
2022-11-19T01:59:32.466Z,97732.44
2022-11-19T02:02:00.248Z,97737.72
2022-11-19T02:04:28.911Z,97736.34
2022-11-19T02:07:19.292Z,97740.66
2022-11-19T02:10:01.971Z,97736.34
2022-11-19T02:12:53.318Z,97743.56
2022-11-19T02:15:55.444Z,97746.66
2022-11-19T02:19:06.871Z,97721.06
2022-11-19T02:22:25.415Z,97749.69
2022-11-19T02:25:19.515Z,97757.78
2022-11-19T02:28:25.115Z,97749.16
2022-11-19T02:30:59.362Z,97760.88
2022-11-19T02:33:29.138Z,97765.44
2022-11-19T02:36:03.105Z,97720.75
2022-11-19T02:38:38.242Z,97778.97
2022-11-19T02:41:30.961Z,97790.38
2022-11-19T02:44:39.632Z,97789.81
2022-11-19T02:47:12.356Z,97796.34
2022-11-19T02:49:44.818Z,97797.59
2022-11-19T02:52:16.559Z,97795.09
2022-11-19T02:54:43.946Z,97796.75
2022-11-19T02:57:13.167Z,97803.19
2022-11-19T03:00:08.551Z,97795.38
2022-11-19T03:03:10.007Z,97792.75
2022-11-19T03:05:42.660Z,97798.72
2022-11-19T03:08:09.654Z,97775.03
2022-11-19T03:10:54.857Z,97790.34
2022-11-19T03:13:45.128Z,97794.25
2022-11-19T03:16:42.702Z,97794.28
2022-11-19T03:19:30.878Z,97802.63
2022-11-19T03:22:09.834Z,97807.50
2022-11-19T03:24:42.063Z,97801.22
2022-11-19T03:27:15.396Z,97814.59
2022-11-19T03:29:47.180Z,97825.88
2022-11-19T03:32:19.842Z,97827.41
2022-11-19T03:34:50.741Z,97813.75
2022-11-19T03:37:23.003Z,97820.19
2022-11-19T03:39:52.620Z,97817.63
2022-11-19T03:42:21.392Z,97833.66
2022-11-19T03:44:57.376Z,97798.84
2022-11-19T03:47:34.356Z,97827.41
2022-11-19T03:50:24.650Z,97832.16
2022-11-19T03:52:51.896Z,97838.00
2022-11-19T03:55:18.925Z,97833.97
2022-11-19T03:57:46.186Z,97844.69
2022-11-19T04:00:13.485Z,97849.97
2022-11-19T04:02:41.010Z,97845.53
2022-11-19T04:05:09.432Z,97850.38
2022-11-19T04:07:36.505Z,97844.25
2022-11-19T04:10:03.743Z,97845.81
2022-11-19T04:12:30.681Z,97849.16
2022-11-19T04:14:57.567Z,97846.09
2022-11-19T04:17:24.512Z,97844.44
2022-11-19T04:19:51.560Z,97844.44
2022-11-19T04:22:18.505Z,97854.72
2022-11-19T04:24:45.420Z,97873.09
2022-11-19T04:27:12.429Z,97866.53
2022-11-19T04:29:39.407Z,97866.00
2022-11-19T04:32:06.373Z,97865.03
2022-11-19T04:34:33.332Z,97877.94
2022-11-19T04:37:00.286Z,97879.06
2022-11-19T04:39:27.570Z,97881.97
2022-11-19T04:41:54.701Z,97881.56
2022-11-19T04:44:21.659Z,97877.31
2022-11-19T04:46:48.591Z,97882.53
2022-11-19T04:49:15.579Z,97885.28
2022-11-19T04:51:42.572Z,97882.25
2022-11-19T04:54:09.740Z,97882.81
2022-11-19T04:56:37.800Z,97895.38
2022-11-19T04:59:05.648Z,97898.69
2022-11-19T05:01:32.681Z,97895.06
2022-11-19T05:03:59.790Z,97895.34
2022-11-19T05:06:26.756Z,97902.59
2022-11-19T05:08:53.738Z,97899.41
2022-11-19T05:11:20.687Z,97905.81
2022-11-19T05:13:47.629Z,97905.81
2022-11-19T05:16:14.697Z,97913.06
2022-11-19T05:18:41.667Z,97906.63
2022-11-19T05:21:08.735Z,97919.03
2022-11-19T05:23:35.656Z,97926.13
2022-11-19T05:26:02.565Z,97926.28
2022-11-19T05:28:38.668Z,97923.47
2022-11-19T05:31:06.930Z,97926.31
2022-11-19T05:33:34.656Z,97926.88
2022-11-19T05:36:02.215Z,97931.72
2022-11-19T05:38:29.212Z,97927.38
2022-11-19T05:40:56.201Z,97943.53
2022-11-19T05:43:24.019Z,97949.78
2022-11-19T05:45:50.965Z,97949.38
2022-11-19T05:48:17.888Z,97957.03
2022-11-19T05:50:44.853Z,97955.22
2022-11-19T05:53:11.824Z,97958.00
2022-11-19T05:55:38.771Z,97961.50
2022-11-19T05:58:05.651Z,97953.81
2022-11-19T06:00:32.517Z,97966.66
2022-11-19T06:02:59.559Z,97970.81
2022-11-19T06:05:26.584Z,97970.81
2022-11-19T06:07:53.493Z,97979.31
2022-11-19T06:10:20.438Z,97977.63
2022-11-19T06:12:47.362Z,97985.88
2022-11-19T06:15:15.240Z,97983.09
2022-11-19T06:17:42.547Z,97978.94
2022-11-19T06:20:11.397Z,97975.59
2022-11-19T06:22:39.023Z,97997.34
2022-11-19T06:25:07.830Z,98015.75
2022-11-19T06:27:35.394Z,98008.81
2022-11-19T06:30:02.452Z,98013.09
2022-11-19T06:32:29.426Z,98023.09
2022-11-19T06:34:56.360Z,98026.50
2022-11-19T06:37:23.586Z,98032.94
2022-11-19T06:39:50.558Z,98032.34
2022-11-19T06:42:36.302Z,98039.03
2022-11-19T06:45:14.370Z,98030.81
2022-11-19T06:47:42.392Z,98029.31
2022-11-19T06:50:10.926Z,98035.72
2022-11-19T06:52:38.196Z,98031.16
2022-11-19T06:55:05.520Z,98051.25
2022-11-19T06:57:32.560Z,98050.41
2022-11-19T06:59:59.504Z,98052.38
2022-11-19T07:02:26.454Z,98064.06
2022-11-19T07:04:53.475Z,98060.59
2022-11-19T07:07:20.360Z,98052.16
2022-11-19T07:09:47.313Z,98057.72
2022-11-19T07:12:14.177Z,98050.75
2022-11-19T07:14:41.179Z,98058.34
2022-11-19T07:17:08.115Z,98057.00
2022-11-19T07:19:35.111Z,98060.88
2022-11-19T07:22:02.022Z,98063.53
2022-11-19T07:24:28.986Z,98075.53
2022-11-19T07:26:56.439Z,98079.50
2022-11-19T07:29:23.642Z,98073.78
2022-11-19T07:31:51.011Z,98071.91
2022-11-19T07:34:18.625Z,98073.22
2022-11-19T07:36:46.696Z,98069.31
2022-11-19T07:39:13.813Z,98075.00
2022-11-19T07:41:59.429Z,98070.47
2022-11-19T07:44:26.748Z,98083.69
2022-11-19T07:46:53.787Z,98083.28
2022-11-19T07:49:21.185Z,98075.06
2022-11-19T07:51:48.418Z,98070.22
2022-11-19T07:54:15.527Z,98074.00
2022-11-19T07:56:42.986Z,98068.28
2022-11-19T07:59:10.602Z,98073.16
2022-11-19T08:01:38.263Z,98073.31
2022-11-19T08:04:05.523Z,98081.16
2022-11-19T08:06:34.748Z,98084.34
2022-11-19T08:09:04.164Z,98082.66
2022-11-19T08:11:31.564Z,98095.09
2022-11-19T08:14:02.248Z,98096.84
2022-11-19T08:16:48.782Z,98093.41
2022-11-19T08:19:16.883Z,98095.34
2022-11-19T08:21:46.182Z,98091.47
2022-11-19T08:24:14.948Z,98090.91
2022-11-19T08:26:43.442Z,98075.28
2022-11-19T08:29:15.914Z,98088.00
2022-11-19T08:31:45.182Z,98088.44
2022-11-19T08:34:12.537Z,98081.88
2022-11-19T08:36:39.837Z,98093.47
2022-11-19T08:39:06.995Z,98085.81
2022-11-19T08:41:52.729Z,98103.25
2022-11-19T08:44:20.085Z,98104.66
2022-11-19T08:46:47.346Z,98101.56
2022-11-19T08:49:14.636Z,98101.28
2022-11-19T08:51:41.641Z,98110.72
2022-11-19T08:54:09.210Z,98112.16
2022-11-19T08:56:36.931Z,98116.88
2022-11-19T08:59:04.361Z,98116.47
2022-11-19T09:01:31.669Z,98121.66
2022-11-19T09:03:59.026Z,98112.44
2022-11-19T09:06:26.594Z,98115.50
2022-11-19T09:08:53.620Z,98130.75
2022-11-19T09:11:22.211Z,98112.91
2022-11-19T09:13:49.673Z,98126.72
2022-11-19T09:16:17.263Z,98124.47
2022-11-19T09:18:44.947Z,98118.03
2022-11-19T09:21:12.934Z,98138.72
2022-11-19T09:23:41.790Z,98134.78
2022-11-19T09:26:15.200Z,98141.78
2022-11-19T09:28:43.436Z,98143.75
2022-11-19T09:31:13.536Z,98146.81
2022-11-19T09:33:42.546Z,98147.50
2022-11-19T09:36:10.913Z,98152.53
2022-11-19T09:38:39.576Z,98149.59
2022-11-19T09:41:44.076Z,98136.59
2022-11-19T09:44:23.080Z,98144.81
2022-11-19T09:46:59.138Z,98135.72
2022-11-19T09:49:36.940Z,98136.94
2022-11-19T09:52:14.140Z,98120.28
2022-11-19T09:54:48.826Z,98133.94
2022-11-19T09:57:28.115Z,98132.47
2022-11-19T09:59:59.459Z,98136.03
2022-11-19T10:02:26.834Z,98128.13
2022-11-19T10:04:54.496Z,98126.56
2022-11-19T10:07:41.085Z,98129.13
2022-11-19T10:10:36.050Z,98124.84
2022-11-19T10:13:33.763Z,98126.44
2022-11-19T10:16:17.481Z,98122.50
2022-11-19T10:19:22.686Z,98124.75
2022-11-19T10:22:07.819Z,98125.28
2022-11-19T10:24:42.559Z,98151.03
2022-11-19T10:27:26.181Z,98137.81
2022-11-19T10:29:58.594Z,98134.16
2022-11-19T10:33:00.939Z,98135.13
2022-11-19T10:35:36.462Z,98137.03
2022-11-19T10:38:07.555Z,98136.91
2022-11-19T10:41:00.336Z,98137.75
2022-11-19T10:43:48.937Z,98136.06
2022-11-19T10:46:20.346Z,98131.19
2022-11-19T10:48:52.006Z,98135.38
2022-11-19T10:51:26.175Z,98126.00
2022-11-19T10:53:56.309Z,98128.53
2022-11-19T10:56:44.467Z,98136.34
2022-11-19T10:59:24.765Z,98137.72
2022-11-19T11:01:58.430Z,98133.53
2022-11-19T11:04:30.449Z,98133.69
2022-11-19T11:07:04.502Z,98130.97
2022-11-19T11:09:35.822Z,98133.25
2022-11-19T11:12:35.552Z,98123.63
2022-11-19T11:15:30.766Z,98128.81
2022-11-19T11:18:09.258Z,98139.44
2022-11-19T11:20:41.755Z,98133.13
2022-11-19T11:23:26.376Z,98137.88
2022-11-19T11:26:14.082Z,98144.56
2022-11-19T11:29:01.931Z,98141.91
2022-11-19T11:31:45.599Z,98141.38
2022-11-19T11:34:37.142Z,98130.59
2022-11-19T11:37:10.162Z,98135.94
2022-11-19T11:39:45.101Z,98123.91
2022-11-19T11:42:21.436Z,98127.38
2022-11-19T11:44:56.357Z,98128.94
2022-11-19T11:47:32.401Z,98134.91
2022-11-19T11:50:19.010Z,98126.94
2022-11-19T11:52:53.927Z,98127.00
2022-11-19T11:55:25.865Z,98123.63
2022-11-19T11:58:07.011Z,98125.97
2022-11-19T12:00:43.124Z,98127.53
2022-11-19T12:03:20.244Z,98111.63
2022-11-19T12:05:58.538Z,98133.28
2022-11-19T12:08:52.901Z,98139.84
2022-11-19T12:11:29.060Z,98135.06
2022-11-19T12:14:21.317Z,98133.53
2022-11-19T12:17:17.936Z,98135.91
2022-11-19T12:20:24.100Z,98139.28
2022-11-19T12:22:56.934Z,98141.09
2022-11-19T12:25:48.149Z,98106.47
2022-11-19T12:28:52.220Z,98138.28
2022-11-19T12:31:29.680Z,98135.91
2022-11-19T12:34:15.122Z,98136.72
2022-11-19T12:37:01.997Z,98143.16
2022-11-19T12:40:15.853Z,98148.44
2022-11-19T12:43:00.426Z,98150.81
2022-11-19T12:45:57.880Z,98152.94
2022-11-19T12:48:52.678Z,98154.31
2022-11-19T12:51:42.666Z,98156.41
2022-11-19T12:54:17.576Z,98156.41
2022-11-19T12:56:58.075Z,98158.91
2022-11-19T12:59:33.836Z,98156.03
2022-11-19T13:02:11.126Z,98153.66
2022-11-19T13:04:46.117Z,98152.41
2022-11-19T13:07:19.910Z,98151.69
2022-11-19T13:09:54.999Z,98131.44
2022-11-19T13:12:26.807Z,98157.13
2022-11-19T13:14:59.874Z,98160.91
2022-11-19T13:17:30.318Z,98163.44
2022-11-19T13:20:12.035Z,98161.88
2022-11-19T13:22:44.424Z,98171.09
2022-11-19T13:25:24.590Z,98168.34
2022-11-19T13:27:54.952Z,98165.38
2022-11-19T13:30:27.500Z,98170.28
2022-11-19T13:33:00.357Z,98170.69
2022-11-19T13:35:38.973Z,98170.28
2022-11-19T13:38:20.047Z,98181.44
2022-11-19T13:40:53.241Z,98175.88
2022-11-19T13:43:41.182Z,98175.72
2022-11-19T13:46:11.090Z,98170.69
2022-11-19T13:48:44.642Z,98177.25
2022-11-19T13:51:55.437Z,98173.63
2022-11-19T13:54:26.964Z,98160.66
2022-11-19T13:56:57.592Z,98173.34
2022-11-19T13:59:39.782Z,98170.69
2022-11-19T14:02:43.947Z,98176.97
2022-11-19T14:05:29.623Z,98177.41
2022-11-19T14:08:18.123Z,98173.75
2022-11-19T14:11:11.076Z,98173.63
2022-11-19T14:14:35.191Z,98170.25
2022-11-19T14:17:56.767Z,98183.81
2022-11-19T14:21:01.841Z,98170.84
2022-11-19T14:24:03.616Z,98179.34
2022-11-19T14:27:00.736Z,98175.81
2022-11-19T14:29:27.610Z,98176.66
2022-11-19T14:32:00.529Z,98166.28
2022-11-19T14:34:35.192Z,98179.00
2022-11-19T14:37:28.015Z,98187.50
2022-11-19T14:40:06.630Z,98186.13
2022-11-19T14:42:33.768Z,98172.47
2022-11-19T14:45:03.406Z,98180.13
2022-11-19T14:47:35.596Z,98179.72
2022-11-19T14:50:09.934Z,98174.13
2022-11-19T14:52:55.137Z,98182.09
2022-11-19T14:55:30.373Z,98188.47
2022-11-19T14:58:02.352Z,98176.34
2022-11-19T15:00:32.127Z,98193.22
2022-11-19T15:03:01.655Z,98177.59
2022-11-19T15:05:36.799Z,98185.81
2022-11-19T15:08:19.083Z,98179.09
2022-11-19T15:11:08.577Z,98189.28
2022-11-19T15:13:40.949Z,98183.66
2022-11-19T15:16:17.646Z,98202.22
2022-11-19T15:18:45.184Z,98196.78
2022-11-19T15:21:15.424Z,98197.59
2022-11-19T15:24:11.151Z,98191.31
2022-11-19T15:27:05.410Z,98190.16
2022-11-19T15:30:01.020Z,98193.44
2022-11-19T15:32:52.738Z,98197.00
2022-11-19T15:35:54.603Z,98206.75
2022-11-19T15:38:25.121Z,98206.50
2022-11-19T15:40:56.492Z,98214.91
2022-11-19T15:43:27.767Z,98215.41
2022-11-19T15:46:18.785Z,98218.06
2022-11-19T15:49:22.995Z,98217.09
2022-11-19T15:52:10.805Z,98215.16
2022-11-19T15:54:41.548Z,98227.44
2022-11-19T15:57:17.454Z,98215.59
2022-11-19T15:59:49.833Z,98221.00
2022-11-19T16:02:41.441Z,98216.50
2022-11-19T16:05:23.458Z,98224.31
2022-11-19T16:07:52.563Z,98230.97
2022-11-19T16:10:28.751Z,98219.38
2022-11-19T16:13:19.496Z,98222.28
2022-11-19T16:16:10.763Z,98219.19
2022-11-19T16:18:52.378Z,98215.84
2022-11-19T16:21:27.797Z,98214.66
2022-11-19T16:24:13.870Z,98212.72
2022-11-19T16:26:42.837Z,98212.00
2022-11-19T16:29:19.779Z,98217.13
2022-11-19T16:31:50.357Z,98196.53
2022-11-19T16:34:25.942Z,98206.84
2022-11-19T16:36:53.554Z,98203.28
2022-11-19T16:39:25.504Z,98212.31
2022-11-19T16:42:15.930Z,98221.69
2022-11-19T16:44:53.608Z,98211.66
2022-11-19T16:47:33.688Z,98215.03
2022-11-19T16:50:24.919Z,98218.91
2022-11-19T16:52:51.849Z,98214.44
2022-11-19T16:55:18.735Z,98211.38
2022-11-19T16:58:16.560Z,98207.41
2022-11-19T17:00:48.241Z,98203.66
2022-11-19T17:03:29.852Z,98209.09
2022-11-19T17:05:58.742Z,98189.91
2022-11-19T17:08:31.732Z,98195.31
2022-11-19T17:11:42.563Z,98194.28
2022-11-19T17:14:16.741Z,98196.94
2022-11-19T17:16:50.148Z,98196.75
2022-11-19T17:19:29.147Z,98195.19
2022-11-19T17:22:01.994Z,98159.91
2022-11-19T17:24:38.305Z,98195.47
2022-11-19T17:27:05.482Z,98188.88
2022-11-19T17:29:32.818Z,98192.72
2022-11-19T17:31:59.938Z,98196.00
2022-11-19T17:34:31.451Z,98194.16
2022-11-19T17:36:59.056Z,98193.19
2022-11-19T17:39:26.232Z,98196.00
2022-11-19T17:42:13.911Z,98182.88
2022-11-19T17:44:41.725Z,98185.78
2022-11-19T17:47:23.220Z,98158.66
2022-11-19T17:49:51.317Z,98198.66
2022-11-19T17:52:27.984Z,98208.59
2022-11-19T17:55:10.956Z,98196.38
2022-11-19T17:57:42.402Z,98208.72
2022-11-19T18:00:10.601Z,98198.63
2022-11-19T18:02:37.544Z,98192.66
2022-11-19T18:05:15.401Z,98197.56
2022-11-19T18:07:42.487Z,98198.63
2022-11-19T18:10:10.274Z,98198.88
2022-11-19T18:12:37.227Z,98195.66
2022-11-19T18:15:05.008Z,98200.19
2022-11-19T18:17:31.954Z,98197.06
2022-11-19T18:19:58.827Z,98196.59
2022-11-19T18:22:25.805Z,98201.00
2022-11-19T18:24:52.895Z,98210.72
2022-11-19T18:27:19.898Z,98206.44
2022-11-19T18:29:47.103Z,98199.28
2022-11-19T18:32:17.136Z,98213.91
2022-11-19T18:34:45.663Z,98217.41
2022-11-19T18:37:13.285Z,98175.16
2022-11-19T18:39:40.461Z,98208.78
2022-11-19T18:42:12.108Z,98209.25
2022-11-19T18:44:39.550Z,98205.34
2022-11-19T18:47:10.170Z,98201.72
2022-11-19T18:49:37.901Z,98205.66
2022-11-19T18:52:07.426Z,98211.50
2022-11-19T18:54:34.402Z,98201.16
2022-11-19T18:57:01.607Z,98199.47
2022-11-19T18:59:30.288Z,98200.91
2022-11-19T19:01:57.535Z,98185.28
2022-11-19T19:04:24.580Z,98207.56
2022-11-19T19:06:51.629Z,98208.03
2022-11-19T19:09:20.633Z,98207.63
2022-11-19T19:12:12.649Z,98212.81
2022-11-19T19:14:40.943Z,98206.78
2022-11-19T19:17:08.453Z,98201.53
2022-11-19T19:19:35.837Z,98201.75
2022-11-19T19:22:02.768Z,98208.19
2022-11-19T19:24:30.753Z,98197.91
2022-11-19T19:26:57.685Z,98196.22
2022-11-19T19:29:24.959Z,98198.84
2022-11-19T19:31:52.454Z,98209.03
2022-11-19T19:34:20.048Z,98212.28
2022-11-19T19:36:52.746Z,98213.47
2022-11-19T19:39:20.453Z,98212.72
2022-11-19T19:41:49.438Z,98212.63
2022-11-19T19:44:16.733Z,98205.28
2022-11-19T19:46:43.874Z,98203.50
2022-11-19T19:49:10.829Z,98205.50
2022-11-19T19:51:37.773Z,98192.47
2022-11-19T19:54:04.790Z,98200.97
2022-11-19T19:56:33.646Z,98203.50
2022-11-19T19:59:02.187Z,98199.03
2022-11-19T20:01:31.772Z,98201.69
2022-11-19T20:04:07.007Z,98205.06
2022-11-19T20:06:35.657Z,98196.41
2022-11-19T20:09:08.236Z,98200.69
2022-11-19T20:11:36.367Z,98204.25
2022-11-19T20:14:03.287Z,98202.06
2022-11-19T20:16:32.099Z,98200.50
2022-11-19T20:19:00.531Z,98207.66
2022-11-19T20:21:31.843Z,98206.72
2022-11-19T20:23:58.822Z,98192.59
2022-11-19T20:26:28.791Z,98206.28
2022-11-19T20:28:58.340Z,98203.03
2022-11-19T20:31:26.447Z,98208.13
2022-11-19T20:33:59.111Z,98211.06
2022-11-19T20:36:28.862Z,98208.38
2022-11-19T20:38:57.709Z,98211.34
2022-11-19T20:41:43.514Z,98213.69
2022-11-19T20:44:23.406Z,98220.09
2022-11-19T20:46:57.324Z,98216.84
2022-11-19T20:49:28.865Z,98213.06
2022-11-19T20:51:57.053Z,98202.53
2022-11-19T20:54:25.237Z,98200.13
2022-11-19T20:56:53.324Z,98195.81
2022-11-19T20:59:21.181Z,98202.75
2022-11-19T21:01:50.110Z,98205.47
2022-11-19T21:04:17.936Z,98199.28
2022-11-19T21:06:45.096Z,98202.31
2022-11-19T21:09:12.038Z,98191.47
2022-11-19T21:11:39.132Z,98191.97
2022-11-19T21:14:06.825Z,98186.06
2022-11-19T21:16:33.767Z,98176.94
2022-11-19T21:19:00.855Z,98184.28
2022-11-19T21:21:28.061Z,98191.03
2022-11-19T21:23:55.193Z,98180.59
2022-11-19T21:26:24.486Z,98187.25
2022-11-19T21:28:54.048Z,98186.53
2022-11-19T21:31:23.662Z,98186.53
2022-11-19T21:33:50.642Z,98180.22
2022-11-19T21:36:17.589Z,98189.88
2022-11-19T21:38:44.532Z,98192.19
2022-11-19T21:41:11.421Z,98200.91
2022-11-19T21:43:38.359Z,98199.34
2022-11-19T21:46:08.482Z,98204.06
2022-11-19T21:48:38.473Z,98197.97
2022-11-19T21:51:07.762Z,98194.69
2022-11-19T21:53:35.878Z,98194.34
2022-11-19T21:56:02.804Z,98196.56
2022-11-19T21:58:29.821Z,98195.50
2022-11-19T22:01:04.642Z,98197.41
2022-11-19T22:03:33.512Z,98177.00
2022-11-19T22:06:09.201Z,98204.13
2022-11-19T22:08:41.565Z,98205.50
2022-11-19T22:11:28.663Z,98216.94
2022-11-19T22:13:57.825Z,98203.91
2022-11-19T22:16:24.826Z,98201.78
2022-11-19T22:18:51.775Z,98196.13
2022-11-19T22:21:19.245Z,98202.66
2022-11-19T22:23:46.607Z,98207.16
2022-11-19T22:26:15.767Z,98203.91
2022-11-19T22:28:42.964Z,98201.19
2022-11-19T22:31:11.104Z,98198.03
2022-11-19T22:33:40.319Z,98207.94
2022-11-19T22:36:10.573Z,98200.06
2022-11-19T22:38:39.383Z,98196.59
2022-11-19T22:41:15.558Z,98196.50
2022-11-19T22:43:43.074Z,98186.28
2022-11-19T22:46:15.005Z,98188.59
2022-11-19T22:48:42.190Z,98182.69
2022-11-19T22:51:18.020Z,98186.28
2022-11-19T22:53:45.601Z,98186.91
2022-11-19T22:56:14.684Z,98185.66
2022-11-19T22:58:42.057Z,98188.16
2022-11-19T23:01:16.762Z,98197.75
2022-11-19T23:03:44.206Z,98196.25
2022-11-19T23:06:11.139Z,98197.63
2022-11-19T23:08:38.408Z,98197.38
2022-11-19T23:11:07.308Z,98157.25
2022-11-19T23:13:39.263Z,98196.00
2022-11-19T23:16:13.461Z,98172.22
2022-11-19T23:18:45.939Z,98187.22
2022-11-19T23:21:24.788Z,98188.84
2022-11-19T23:23:53.228Z,98187.06
2022-11-19T23:26:23.358Z,98199.13
2022-11-19T23:28:51.104Z,98205.44
2022-11-19T23:31:23.709Z,98202.53
2022-11-19T23:33:58.542Z,98193.91
2022-11-19T23:36:28.603Z,98196.97
2022-11-19T23:38:55.604Z,98196.97
2022-11-19T23:41:23.133Z,98189.25
2022-11-19T23:43:52.485Z,98189.56
2022-11-19T23:46:25.186Z,98197.53
2022-11-19T23:48:53.307Z,98188.25
2022-11-19T23:51:26.097Z,98190.28
2022-11-19T23:53:53.276Z,98188.91
2022-11-19T23:56:21.727Z,98190.31
2022-11-19T23:58:48.979Z,98205.06
